Jackie Cenac — WDG9141 — position and weather

sailwx.info

Track history (hours):
 
Tides and Currents Weather Stations Pressure Air Temp Water Temp Dewpoint Dewpoint Depression Visibility Wind Speed Wind Dir Waves Ship Positions

Jackie Cenac

Owner: Cenac Marine Services, Houma, LA. More information available from US FCC via Universal Licensing System and Coast Guard Vessel Documentation Center.

Last reported at 2017-Dec-11 17:00 UTC. Time now 2017-Dec-12 04:19 UTC.
Position N 30°04' W 093°22'.

Length 22 m; draft 3.3 m.

Type: Tug. MMSI: 367584740.

Date/timePositionNaut miles runAvg speedWind from/ knotsBaromVisibWave heightAir tempDewpointWater temp
2017-Dec-11 17:00N 30°04' W 093°22'0 0.0
2017-Dec-11 16:30N 30°04' W 093°22'0 0.0
2017-Dec-11 16:00N 30°04' W 093°22'0 0.0
2017-Dec-11 15:30N 30°04' W 093°22'0 0.0
2017-Dec-11 14:29N 30°04' W 093°22'0 0.0
2017-Dec-11 14:00N 30°04' W 093°22'0 0.0
2017-Dec-11 13:30N 30°04' W 093°22'0 0.0
2017-Dec-11 13:00N 30°04' W 093°22'0 0.0
2017-Dec-11 12:30N 30°04' W 093°22'0 0.0
2017-Dec-11 12:00N 30°04' W 093°22'0 0.0
2017-Dec-11 11:30N 30°04' W 093°22'0 0.0
2017-Dec-11 11:00N 30°04' W 093°22'0 0.0
2017-Dec-11 10:30N 30°04' W 093°22'0 0.0
2017-Dec-11 10:00N 30°04' W 093°22'0 0.0
2017-Dec-11 09:30N 30°04' W 093°22'0 0.0
2017-Dec-11 09:00N 30°04' W 093°22'0 0.0
2017-Dec-11 08:30N 30°04' W 093°22'0 0.0
2017-Dec-11 08:00N 30°04' W 093°22'0 0.0
2017-Dec-11 07:30N 30°04' W 093°22'0 0.0
2017-Dec-11 07:00N 30°04' W 093°22'0 0.0
2017-Dec-11 06:30N 30°04' W 093°22'0 0.0
2017-Dec-11 06:00N 30°04' W 093°22'0 0.0
2017-Dec-11 05:30N 30°04' W 093°22'0 0.0
2017-Dec-11 05:00N 30°04' W 093°22'0 0.0
2017-Dec-11 04:30N 30°04' W 093°22'0 0.0
2017-Dec-11 04:00N 30°04' W 093°22'0 0.0
2017-Dec-11 03:30N 30°04' W 093°22'0 0.0
2017-Dec-11 03:00N 30°04' W 093°22'0 0.0
2017-Dec-11 02:30N 30°04' W 093°22'0 0.0
2017-Dec-11 02:00N 30°04' W 093°22'0 0.0
2017-Dec-11 01:30N 30°04' W 093°22'0 0.0
2017-Dec-11 01:00N 30°04' W 093°22'0 0.2
2017-Dec-11 00:30N 30°04' W 093°22'0 0.0
2017-Dec-11 00:00N 30°04' W 093°22'0 0.0
2017-Dec-10 23:30N 30°04' W 093°22'0 0.0
2017-Dec-10 23:00N 30°04' W 093°22'0 0.0
2017-Dec-10 22:30N 30°04' W 093°22'0 0.0
2017-Dec-10 22:00N 30°04' W 093°22'0 0.0
2017-Dec-10 21:30N 30°04' W 093°22'0 0.0
2017-Dec-10 21:00N 30°04' W 093°22'0 0.0
2017-Dec-10 20:30N 30°04' W 093°22'0 0.0
2017-Dec-10 20:00N 30°04' W 093°22'0 0.0
2017-Dec-10 19:30N 30°04' W 093°22'0 0.0
2017-Dec-10 19:00N 30°04' W 093°22'0 0.0
2017-Dec-10 18:30N 30°04' W 093°22'0 0.0
2017-Dec-10 18:00N 30°04' W 093°22'0 0.0
2017-Dec-10 17:30N 30°04' W 093°22'0 0.0
2017-Dec-10 17:00N 30°04' W 093°22'0 0.0
2017-Dec-10 16:30N 30°04' W 093°22'2 3.3
2017-Dec-10 16:00N 30°05' W 093°20'1 2.2
2017-Dec-10 15:30N 30°05' W 093°20'2 4.0
2017-Dec-10 15:00N 30°05' W 093°17'3 5.8
2017-Dec-10 14:30N 30°02' W 093°16'3 5.8
2017-Dec-10 14:00N 30°00' W 093°14'3 7.0
2017-Dec-10 13:30N 29°58' W 093°11'3 6.2
2017-Dec-10 13:00N 29°56' W 093°08'3 6.8
2017-Dec-10 12:30N 29°56' W 093°04'32 6.3
2017-Dec-10 07:24N 29°54' W 092°27'3 6.3
2017-Dec-10 07:00N 29°53' W 092°24'3 4.7
2017-Dec-10 06:25N 29°51' W 092°22'2 5.6
2017-Dec-10 06:00N 29°50' W 092°19'3 5.2
2017-Dec-10 05:30N 29°49' W 092°17'3 6.1
2017-Dec-10 05:00N 29°48' W 092°14'3 5.6
2017-Dec-10 04:30N 29°47' W 092°11'3 5.9
2017-Dec-10 04:00N 29°47' W 092°07'3 6.5
2017-Dec-10 03:30N 29°48' W 092°04'3 6.6
2017-Dec-10 03:00N 29°50' W 092°00'62 6.1
2017-Dec-09 16:47N 29°32' W 090°51'2 7.0
2017-Dec-09 16:30N 29°32' W 090°49'3 6.2
2017-Dec-09 16:00N 29°33' W 090°45'3 5.3
2017-Dec-09 15:30N 29°34' W 090°43'2 5.0
2017-Dec-09 15:00N 29°37' W 090°42'0 0.3
2017-Dec-09 14:30N 29°37' W 090°42'0 0.3
2017-Dec-09 14:00N 29°37' W 090°42'2 4.8
2017-Dec-09 13:30N 29°36' W 090°39'3 6.1
2017-Dec-09 13:00N 29°35' W 090°36'3 6.1
2017-Dec-09 12:30N 29°34' W 090°33'  
Track history (hours):
 
Tides and Currents Weather Stations Pressure Air Temp Water Temp Dewpoint Dewpoint Depression Visibility Wind Speed Wind Dir Waves Ship Positions

Jackie Cenac

Owner: Cenac Marine Services, Houma, LA. More information available from US FCC via Universal Licensing System and Coast Guard Vessel Documentation Center.

Last reported at 2017-Dec-11 17:00 UTC. Time now 2017-Dec-12 04:19 UTC.
Position N 30°04' W 093°22'.

Length 22 m; draft 3.3 m.

Type: Tug. MMSI: 367584740.

Date/timePositionNaut miles runAvg speedWind from/ knotsBaromVisibWave heightAir tempDewpointWater temp
2017-Dec-11 17:00N 30°04' W 093°22'0 0.0
2017-Dec-11 16:30N 30°04' W 093°22'0 0.0
2017-Dec-11 16:00N 30°04' W 093°22'0 0.0
2017-Dec-11 15:30N 30°04' W 093°22'0 0.0
2017-Dec-11 14:29N 30°04' W 093°22'0 0.0
2017-Dec-11 14:00N 30°04' W 093°22'0 0.0
2017-Dec-11 13:30N 30°04' W 093°22'0 0.0
2017-Dec-11 13:00N 30°04' W 093°22'0 0.0
2017-Dec-11 12:30N 30°04' W 093°22'0 0.0
2017-Dec-11 12:00N 30°04' W 093°22'0 0.0
2017-Dec-11 11:30N 30°04' W 093°22'0 0.0
2017-Dec-11 11:00N 30°04' W 093°22'0 0.0
2017-Dec-11 10:30N 30°04' W 093°22'0 0.0
2017-Dec-11 10:00N 30°04' W 093°22'0 0.0
2017-Dec-11 09:30N 30°04' W 093°22'0 0.0
2017-Dec-11 09:00N 30°04' W 093°22'0 0.0
2017-Dec-11 08:30N 30°04' W 093°22'0 0.0
2017-Dec-11 08:00N 30°04' W 093°22'0 0.0
2017-Dec-11 07:30N 30°04' W 093°22'0 0.0
2017-Dec-11 07:00N 30°04' W 093°22'0 0.0
2017-Dec-11 06:30N 30°04' W 093°22'0 0.0
2017-Dec-11 06:00N 30°04' W 093°22'0 0.0
2017-Dec-11 05:30N 30°04' W 093°22'0 0.0
2017-Dec-11 05:00N 30°04' W 093°22'0 0.0
2017-Dec-11 04:30N 30°04' W 093°22'0 0.0
2017-Dec-11 04:00N 30°04' W 093°22'0 0.0
2017-Dec-11 03:30N 30°04' W 093°22'0 0.0
2017-Dec-11 03:00N 30°04' W 093°22'0 0.0
2017-Dec-11 02:30N 30°04' W 093°22'0 0.0
2017-Dec-11 02:00N 30°04' W 093°22'0 0.0
2017-Dec-11 01:30N 30°04' W 093°22'0 0.0
2017-Dec-11 01:00N 30°04' W 093°22'0 0.2
2017-Dec-11 00:30N 30°04' W 093°22'0 0.0
2017-Dec-11 00:00N 30°04' W 093°22'0 0.0
2017-Dec-10 23:30N 30°04' W 093°22'0 0.0
2017-Dec-10 23:00N 30°04' W 093°22'0 0.0
2017-Dec-10 22:30N 30°04' W 093°22'0 0.0
2017-Dec-10 22:00N 30°04' W 093°22'0 0.0
2017-Dec-10 21:30N 30°04' W 093°22'0 0.0
2017-Dec-10 21:00N 30°04' W 093°22'0 0.0
2017-Dec-10 20:30N 30°04' W 093°22'0 0.0
2017-Dec-10 20:00N 30°04' W 093°22'0 0.0
2017-Dec-10 19:30N 30°04' W 093°22'0 0.0
2017-Dec-10 19:00N 30°04' W 093°22'0 0.0
2017-Dec-10 18:30N 30°04' W 093°22'0 0.0
2017-Dec-10 18:00N 30°04' W 093°22'0 0.0
2017-Dec-10 17:30N 30°04' W 093°22'0 0.0
2017-Dec-10 17:00N 30°04' W 093°22'0 0.0
2017-Dec-10 16:30N 30°04' W 093°22'2 3.3
2017-Dec-10 16:00N 30°05' W 093°20'1 2.2
2017-Dec-10 15:30N 30°05' W 093°20'2 4.0
2017-Dec-10 15:00N 30°05' W 093°17'3 5.8
2017-Dec-10 14:30N 30°02' W 093°16'3 5.8
2017-Dec-10 14:00N 30°00' W 093°14'3 7.0
2017-Dec-10 13:30N 29°58' W 093°11'3 6.2
2017-Dec-10 13:00N 29°56' W 093°08'3 6.8
2017-Dec-10 12:30N 29°56' W 093°04'32 6.3
2017-Dec-10 07:24N 29°54' W 092°27'3 6.3
2017-Dec-10 07:00N 29°53' W 092°24'3 4.7
2017-Dec-10 06:25N 29°51' W 092°22'2 5.6
2017-Dec-10 06:00N 29°50' W 092°19'3 5.2
2017-Dec-10 05:30N 29°49' W 092°17'3 6.1
2017-Dec-10 05:00N 29°48' W 092°14'3 5.6
2017-Dec-10 04:30N 29°47' W 092°11'3 5.9
2017-Dec-10 04:00N 29°47' W 092°07'3 6.5
2017-Dec-10 03:30N 29°48' W 092°04'3 6.6
2017-Dec-10 03:00N 29°50' W 092°00'62 6.1
2017-Dec-09 16:47N 29°32' W 090°51'2 7.0
2017-Dec-09 16:30N 29°32' W 090°49'3 6.2
2017-Dec-09 16:00N 29°33' W 090°45'3 5.3
2017-Dec-09 15:30N 29°34' W 090°43'2 5.0
2017-Dec-09 15:00N 29°37' W 090°42'0 0.3
2017-Dec-09 14:30N 29°37' W 090°42'0 0.3
2017-Dec-09 14:00N 29°37' W 090°42'2 4.8
2017-Dec-09 13:30N 29°36' W 090°39'3 6.1
2017-Dec-09 13:00N 29°35' W 090°36'3 6.1
2017-Dec-09 12:30N 29°34' W 090°33'  

Dump ship's entire track history